Time;durP1;ratioP1;P1;durP2;ratioP2;P2;SDS_P1;SDS_P2;PMS_P1;PMS_P2;Temp;Humidity;BMP_temperature;BMP_pressure;BME280_temperature;BME280_humidity;BME280_pressure;Samples;Min_cycle;Max_cycle;Signal;HPM_P1;HPM_P2
2022/04/09 00:02:21;;;;;;;15.45;2.50;;;;;;;;;;5015358;28;20030;-74
2022/04/09 00:04:47;;;;;;;16.45;3.10;;;;;;;;;;5015454;28;20037;-75
2022/04/09 00:07:14;;;;;;;16.02;2.33;;;;;;;;;;5014219;28;20030;-74
2022/04/09 00:09:40;;;;;;;17.38;2.40;;;;;;;;;;5013747;28;20030;-75
2022/04/09 00:12:06;;;;;;;15.40;2.67;;;;;;;;;;5014202;28;20394;-73
2022/04/09 00:14:32;;;;;;;19.85;2.90;;;;;;;;;;5015755;28;20029;-73
2022/04/09 00:16:58;;;;;;;20.48;3.30;;;;;;;;;;5015836;28;20018;-74
2022/04/09 00:19:24;;;;;;;11.40;2.35;;;;;;;;;;5014646;28;20494;-74
2022/04/09 00:21:50;;;;;;;12.00;2.30;;;;;;;;;;5014333;28;20037;-74
2022/04/09 00:24:16;;;;;;;17.45;2.42;;;;;;;;;;5014368;28;20025;-73
2022/04/09 00:26:42;;;;;;;14.38;3.20;;;;;;;;;;5018069;28;20034;-75
2022/04/09 00:29:08;;;;;;;8.90;2.30;;;;;;;;;;5014968;28;20390;-76
2022/04/09 00:31:34;;;;;;;19.30;2.47;;;;;;;;;;5013582;28;20474;-73
2022/04/09 00:34:00;;;;;;;15.45;2.22;;;;;;;;;;5014208;28;20122;-75
2022/04/09 00:36:26;;;;;;;9.18;2.03;;;;;;;;;;5013658;28;20022;-75
2022/04/09 00:38:52;;;;;;;14.23;2.88;;;;;;;;;;5012563;28;20483;-74
2022/04/09 00:41:18;;;;;;;16.33;1.90;;;;;;;;;;5013984;28;20446;-74
2022/04/09 00:43:44;;;;;;;10.85;2.15;;;;;;;;;;5013969;28;20498;-73
2022/04/09 00:46:14;;;;;;;18.13;2.20;;;;;;;;;;5013788;28;20376;-75
2022/04/09 00:48:40;;;;;;;15.20;2.50;;;;;;;;;;5013867;28;20037;-74
2022/04/09 00:51:06;;;;;;;22.75;2.90;;;;;;;;;;5013842;28;20030;-72
2022/04/09 00:53:37;;;;;;;10.15;2.28;;;;;;;;;;5014206;28;20119;-75
2022/04/09 00:56:13;;;;;;;19.85;2.63;;;;;;;;;;5012416;28;20026;-74
2022/04/09 00:58:39;;;;;;;15.10;2.17;;;;;;;;;;5013130;28;20375;-75
2022/04/09 01:01:05;;;;;;;13.93;2.30;;;;;;;;;;5013513;28;20041;-73
2022/04/09 01:03:33;;;;;;;13.75;2.30;;;;;;;;;;5013951;28;20125;-73
2022/04/09 01:06:00;;;;;;;17.48;2.45;;;;;;;;;;5011848;28;20507;-76
2022/04/09 01:08:26;;;;;;;16.65;2.85;;;;;;;;;;5012380;28;20026;-75
2022/04/09 01:10:52;;;;;;;14.00;2.92;;;;;;;;;;5013079;28;20119;-73
2022/04/09 01:13:19;;;;;;;18.65;2.50;;;;;;;;;;5013308;28;20152;-73
2022/04/09 01:15:45;;;;;;;17.90;2.50;;;;;;;;;;5012289;28;20364;-73
2022/04/09 01:18:11;;;;;;;12.60;2.58;;;;;;;;;;5013870;28;20037;-74
2022/04/09 01:20:37;;;;;;;11.43;2.30;;;;;;;;;;5017615;28;20506;-73
2022/04/09 01:23:03;;;;;;;13.23;2.45;;;;;;;;;;5028518;28;20281;-74
2022/04/09 01:25:29;;;;;;;11.23;2.42;;;;;;;;;;5015527;28;20033;-74
2022/04/09 01:27:55;;;;;;;17.73;2.00;;;;;;;;;;5013186;28;20026;-75
2022/04/09 01:30:21;;;;;;;12.07;2.45;;;;;;;;;;5013311;28;20065;-74
2022/04/09 01:32:47;;;;;;;9.10;2.20;;;;;;;;;;5012149;28;20061;-74
2022/04/09 01:35:13;;;;;;;16.33;2.60;;;;;;;;;;5011276;28;20426;-75
2022/04/09 01:37:39;;;;;;;14.02;2.42;;;;;;;;;;5013009;28;20026;-75
2022/04/09 01:40:05;;;;;;;17.50;2.65;;;;;;;;;;5012665;28;20060;-74
2022/04/09 01:42:31;;;;;;;14.30;2.40;;;;;;;;;;5012370;28;20101;-73
2022/04/09 01:44:58;;;;;;;12.75;2.33;;;;;;;;;;5012574;28;20511;-74
2022/04/09 01:47:24;;;;;;;17.35;3.25;;;;;;;;;;5012668;28;20026;-76
2022/04/09 01:49:49;;;;;;;6.40;1.85;;;;;;;;;;5012529;28;20037;-73
2022/04/09 01:52:15;;;;;;;8.27;2.00;;;;;;;;;;5012562;28;20064;-74
2022/04/09 01:54:41;;;;;;;11.95;1.80;;;;;;;;;;5012323;28;20034;-73
2022/04/09 01:57:07;;;;;;;14.23;2.20;;;;;;;;;;5011984;28;20108;-73
2022/04/09 01:59:33;;;;;;;15.80;2.08;;;;;;;;;;5012291;28;20033;-74
2022/04/09 02:01:59;;;;;;;12.27;1.60;;;;;;;;;;5012660;28;20033;-74
2022/04/09 02:04:25;;;;;;;15.23;2.60;;;;;;;;;;5012260;28;20124;-73
2022/04/09 02:06:51;;;;;;;11.25;2.15;;;;;;;;;;5012270;28;20407;-75
2022/04/09 02:09:17;;;;;;;14.65;2.53;;;;;;;;;;5012202;28;20029;-73
2022/04/09 02:11:43;;;;;;;13.32;1.80;;;;;;;;;;5011430;28;20446;-74
2022/04/09 02:14:10;;;;;;;14.63;1.85;;;;;;;;;;5012443;28;20475;-73
2022/04/09 02:16:36;;;;;;;11.85;2.05;;;;;;;;;;5017906;28;20022;-72
2022/04/09 02:19:03;;;;;;;10.70;1.92;;;;;;;;;;5012057;28;20026;-73
2022/04/09 02:21:29;;;;;;;23.00;2.83;;;;;;;;;;5017828;28;20029;-73
2022/04/09 02:23:55;;;;;;;9.77;2.08;;;;;;;;;;5015836;28;20053;-75
2022/04/09 02:26:21;;;;;;;13.50;2.38;;;;;;;;;;5017157;28;20088;-75
2022/04/09 02:28:48;;;;;;;13.93;1.80;;;;;;;;;;5019010;28;20088;-73
2022/04/09 02:31:17;;;;;;;17.10;2.67;;;;;;;;;;5020474;28;20042;-76
2022/04/09 02:33:44;;;;;;;12.93;2.08;;;;;;;;;;5019629;28;20014;-73
2022/04/09 02:36:12;;;;;;;15.40;2.30;;;;;;;;;;5018570;28;20041;-75
2022/04/09 02:38:38;;;;;;;14.48;2.55;;;;;;;;;;5022660;28;20037;-73
2022/04/09 02:41:04;;;;;;;15.60;2.40;;;;;;;;;;5067909;22;20053;-71
2022/04/09 02:43:30;;;;;;;15.63;2.05;;;;;;;;;;5059933;28;20432;-72
2022/04/09 02:45:57;;;;;;;9.25;2.03;;;;;;;;;;5057817;28;20024;-72
2022/04/09 02:48:23;;;;;;;12.02;2.38;;;;;;;;;;5061433;28;20022;-70
2022/04/09 02:50:49;;;;;;;10.60;2.58;;;;;;;;;;5056991;28;20082;-70
2022/04/09 02:53:15;;;;;;;13.50;2.75;;;;;;;;;;5051678;28;20481;-71
2022/04/09 02:55:41;;;;;;;12.13;2.33;;;;;;;;;;5051366;28;20474;-71
2022/04/09 02:58:07;;;;;;;15.43;3.47;;;;;;;;;;5051639;28;20104;-72
2022/04/09 03:00:33;;;;;;;14.30;2.45;;;;;;;;;;5051766;28;20063;-71
2022/04/09 03:02:59;;;;;;;29.10;3.30;;;;;;;;;;5053522;28;20032;-71
2022/04/09 03:05:25;;;;;;;11.80;2.60;;;;;;;;;;5056506;28;20162;-71
2022/04/09 03:07:51;;;;;;;10.48;2.38;;;;;;;;;;5051636;28;20037;-71
2022/04/09 03:10:17;;;;;;;11.07;2.20;;;;;;;;;;5051345;28;20159;-71
2022/04/09 03:12:46;;;;;;;15.10;2.35;;;;;;;;;;5051703;28;20025;-71
2022/04/09 03:15:13;;;;;;;12.63;2.30;;;;;;;;;;5051507;28;20025;-71
2022/04/09 03:17:39;;;;;;;7.65;2.63;;;;;;;;;;5051400;28;20025;-70
2022/04/09 03:20:06;;;;;;;14.85;2.25;;;;;;;;;;5051328;28;20035;-71
2022/04/09 03:22:32;;;;;;;13.18;2.42;;;;;;;;;;5051566;28;20029;-71
2022/04/09 03:24:58;;;;;;;14.23;2.50;;;;;;;;;;5055394;28;20490;-73
2022/04/09 03:27:27;;;;;;;15.43;3.00;;;;;;;;;;5055118;28;20037;-71
2022/04/09 03:29:54;;;;;;;13.50;2.75;;;;;;;;;;5053735;28;20115;-76
2022/04/09 03:32:20;;;;;;;14.07;2.75;;;8.30;99.90;;;;;;5055270;28;20440;-73
2022/04/09 03:34:46;;;;;;;12.00;2.38;;;4.50;99.90;;;;;;5055716;28;20028;-72
2022/04/09 03:37:11;;;;;;;11.88;2.88;;;4.30;99.90;;;;;;5056707;28;20283;-73
2022/04/09 03:39:37;;;;;;;10.98;2.47;;;4.20;99.90;;;;;;5057878;28;20149;-71
2022/04/09 03:42:04;;;;;;;11.88;2.50;;;4.20;99.90;;;;;;5058073;28;20021;-72
2022/04/09 03:44:29;;;;;;;17.13;3.22;;;4.30;99.90;;;;;;5055128;28;20505;-71
2022/04/09 03:47:03;;;;;;;11.20;2.72;;;4.20;99.90;;;;;;5054637;28;20037;-71
2022/04/09 03:49:29;;;;;;;14.90;2.85;;;4.20;99.90;;;;;;5054698;28;20047;-72
2022/04/09 03:51:56;;;;;;;17.45;2.55;;;4.10;99.90;;;;;;5054872;28;20036;-71
2022/04/09 03:54:21;;;;;;;9.68;2.65;;;4.10;99.90;;;;;;5054645;28;20470;-72
2022/04/09 03:56:47;;;;;;;13.45;2.63;;;4.10;99.90;;;;;;5054573;28;20035;-72
2022/04/09 03:59:12;;;;;;;18.20;2.72;;;4.00;99.90;;;;;;5054531;28;20013;-72
2022/04/09 04:01:38;;;;;;;15.95;2.50;;;4.10;99.90;;;;;;5054354;28;20022;-72
2022/04/09 04:04:03;;;;;;;14.38;2.42;;;4.00;99.90;;;;;;5054386;28;20497;-72
2022/04/09 04:06:29;;;;;;;18.25;2.72;;;4.10;99.90;;;;;;5054074;28;20434;-71
2022/04/09 04:08:55;;;;;;;13.20;2.97;;;4.00;99.90;;;;;;5054397;28;20025;-71
2022/04/09 04:11:22;;;;;;;15.75;2.70;;;4.00;99.90;;;;;;5054169;28;20078;-72
2022/04/09 04:13:48;;;;;;;18.80;3.15;;;4.10;99.90;;;;;;5054324;28;20070;-70
2022/04/09 04:16:14;;;;;;;22.25;3.28;;;4.10;99.90;;;;;;5054114;28;20492;-70
2022/04/09 04:18:40;;;;;;;14.63;3.53;;;4.00;99.90;;;;;;5054247;28;20025;-72
2022/04/09 04:21:06;;;;;;;15.55;2.95;;;4.00;99.90;;;;;;5055394;28;20553;-73
2022/04/09 04:23:31;;;;;;;16.48;3.10;;;4.00;99.90;;;;;;5055385;28;20486;-74
2022/04/09 04:25:57;;;;;;;12.20;2.50;;;4.00;99.90;;;;;;5054235;28;20025;-71
2022/04/09 04:28:22;;;;;;;17.88;3.03;;;4.00;99.90;;;;;;5053102;28;20043;-71
2022/04/09 04:30:48;;;;;;;13.93;2.78;;;4.00;99.90;;;;;;5054274;28;20096;-73
2022/04/09 04:33:13;;;;;;;21.13;3.95;;;4.00;99.90;;;;;;5054506;28;20460;-72
2022/04/09 04:35:39;;;;;;;30.15;3.60;;;4.00;99.90;;;;;;5052099;28;20021;-72
2022/04/09 04:38:04;;;;;;;21.63;2.67;;;4.10;99.90;;;;;;5055557;28;20029;-71
2022/04/09 04:40:30;;;;;;;30.58;3.35;;;4.10;99.90;;;;;;5053772;28;20438;-71
2022/04/09 04:42:55;;;;;;;23.92;3.60;;;4.00;99.90;;;;;;5053808;28;20028;-70
2022/04/09 04:45:21;;;;;;;26.25;3.95;;;4.00;99.90;;;;;;5053589;28;20086;-71
2022/04/09 04:47:48;;;;;;;22.80;4.35;;;4.00;99.90;;;;;;5053788;28;20029;-71
2022/04/09 04:50:16;;;;;;;31.98;4.03;;;4.00;99.90;;;;;;5053639;28;20241;-73
2022/04/09 04:52:42;;;;;;;20.73;4.30;;;4.10;99.90;;;;;;5053706;28;20074;-72
2022/04/09 04:55:10;;;;;;;21.70;4.00;;;4.10;99.90;;;;;;5053728;28;20029;-72
2022/04/09 04:57:51;;;;;;;22.52;3.65;;;4.00;99.90;;;;;;5053733;28;20154;-72
2022/04/09 05:00:24;;;;;;;29.95;3.92;;;4.00;99.90;;;;;;5053463;28;20017;-74
2022/04/09 05:02:53;;;;;;;21.33;4.60;;;4.10;99.90;;;;;;5053584;28;20454;-73
2022/04/09 05:05:19;;;;;;;33.42;3.78;;;4.10;99.90;;;;;;5053176;28;20032;-72
2022/04/09 05:07:47;;;;;;;21.27;3.47;;;4.20;99.90;;;;;;5053399;28;20029;-73
2022/04/09 05:10:15;;;;;;;24.33;3.72;;;4.20;99.90;;;;;;5053019;28;20033;-72
2022/04/09 05:12:41;;;;;;;28.00;3.63;;;4.30;99.90;;;;;;5053347;28;20051;-73
2022/04/09 05:15:09;;;;;;;21.35;3.63;;;4.40;99.90;;;;;;5051987;28;20020;-74
2022/04/09 05:17:35;;;;;;;19.42;3.50;;;4.40;99.90;;;;;;5053003;28;20478;-74
2022/04/09 05:20:02;;;;;;;26.20;4.15;;;4.50;99.90;;;;;;5052986;28;20040;-74
2022/04/09 05:22:28;;;;;;;28.52;3.83;;;4.50;99.90;;;;;;5053117;28;20027;-73
2022/04/09 05:24:57;;;;;;;35.80;4.22;;;4.50;99.90;;;;;;5052988;28;20501;-73
2022/04/09 05:27:23;;;;;;;32.53;3.90;;;4.50;99.90;;;;;;5053967;28;20044;-74
2022/04/09 05:29:49;;;;;;;27.40;3.65;;;4.60;99.90;;;;;;5054300;28;20033;-74
2022/04/09 05:32:15;;;;;;;25.63;3.75;;;4.60;99.90;;;;;;5053006;28;20029;-72
2022/04/09 05:34:40;;;;;;;29.52;4.00;;;4.60;99.90;;;;;;5053095;28;20023;-72
2022/04/09 05:37:06;;;;;;;24.10;4.80;;;4.70;99.90;;;;;;5052949;28;20021;-71
2022/04/09 05:39:31;;;;;;;25.75;3.72;;;4.80;99.90;;;;;;5052733;28;20037;-73
2022/04/09 05:41:57;;;;;;;25.52;3.58;;;4.80;99.90;;;;;;5053093;28;20018;-73
2022/04/09 05:44:22;;;;;;;23.65;3.50;;;4.90;99.90;;;;;;5052638;28;20048;-72
2022/04/09 05:46:48;;;;;;;28.17;3.70;;;4.90;99.90;;;;;;5051847;28;20029;-73
2022/04/09 05:49:13;;;;;;;24.42;3.75;;;5.00;99.90;;;;;;5053297;28;20150;-73
2022/04/09 05:51:39;;;;;;;36.13;4.88;;;4.90;99.90;;;;;;5053009;28;20437;-72
2022/04/09 05:54:05;;;;;;;32.65;3.72;;;5.10;99.90;;;;;;5053245;28;20377;-71
2022/04/09 05:56:30;;;;;;;20.20;3.83;;;5.20;99.90;;;;;;5055880;28;20035;-72
2022/04/09 05:58:56;;;;;;;31.90;3.75;;;5.20;99.90;;;;;;5056540;28;20040;-72
2022/04/09 06:01:22;;;;;;;24.08;4.03;;;5.30;99.90;;;;;;5060542;28;20055;-72
2022/04/09 06:03:47;;;;;;;28.88;4.65;;;5.30;99.90;;;;;;5059856;28;20037;-73
2022/04/09 06:06:13;;;;;;;31.23;4.10;;;5.30;99.90;;;;;;5051960;28;20021;-72
2022/04/09 06:08:39;;;;;;;22.80;4.30;;;5.40;99.90;;;;;;5052608;28;20525;-72
2022/04/09 06:11:05;;;;;;;24.15;3.70;;;5.40;99.90;;;;;;5052121;28;20194;-70
2022/04/09 06:13:31;;;;;;;27.50;4.07;;;5.50;99.90;;;;;;5051839;28;20108;-72
2022/04/09 06:15:57;;;;;;;27.73;3.72;;;5.50;99.90;;;;;;5052157;28;20151;-73
2022/04/09 06:18:22;;;;;;;21.23;3.80;;;5.60;99.90;;;;;;5052627;28;20159;-72
2022/04/09 06:20:48;;;;;;;30.95;3.85;;;5.50;99.90;;;;;;5052535;28;20109;-73
2022/04/09 06:23:13;;;;;;;18.80;3.35;;;5.50;99.90;;;;;;5043874;28;20033;-73
2022/04/09 06:25:39;;;;;;;19.27;3.30;;;5.50;99.90;;;;;;5035818;28;20104;-73
2022/04/09 06:28:04;;;;;;;19.40;3.78;;;5.50;99.90;;;;;;5032290;28;20438;-73
2022/04/09 06:30:30;;;;;;;19.88;4.00;;;5.50;99.90;;;;;;5031963;28;20033;-72
2022/04/09 06:32:55;;;;;;;25.67;3.28;;;5.60;99.90;;;;;;5032511;28;20494;-71
2022/04/09 06:35:22;;;;;;;18.88;3.03;;;5.60;99.90;;;;;;5034443;28;20021;-72
2022/04/09 06:37:47;;;;;;;19.33;3.25;;;5.70;99.90;;;;;;5050127;28;20021;-72
2022/04/09 06:40:13;;;;;;;19.55;3.10;;;5.70;99.90;;;;;;5051892;28;20562;-72
2022/04/09 06:42:40;;;;;;;20.23;2.63;;;5.80;99.90;;;;;;5049829;28;20029;-74
2022/04/09 06:45:08;;;;;;;27.45;4.70;;;5.90;99.90;;;;;;5052114;28;20033;-71
2022/04/09 06:47:38;;;;;;;22.50;3.45;;;6.00;99.90;;;;;;5051758;28;20025;-72
2022/04/09 06:50:11;;;;;;;18.65;2.92;;;6.10;99.90;;;;;;5053078;28;20394;-71
2022/04/09 06:52:38;;;;;;;26.00;3.80;;;6.30;99.90;;;;;;5053544;28;20474;-71
2022/04/09 06:55:04;;;;;;;15.30;3.17;;;6.40;99.90;;;;;;5052767;28;20025;-71
2022/04/09 06:57:30;;;;;;;28.10;3.80;;;6.40;99.90;;;;;;5052025;28;20029;-72
2022/04/09 06:59:57;;;;;;;27.40;3.42;;;6.40;99.90;;;;;;5056806;28;20047;-74
2022/04/09 07:02:23;;;;;;;23.42;3.42;;;6.40;99.90;;;;;;5058689;28;20382;-71
2022/04/09 07:04:48;;;;;;;24.13;3.70;;;6.40;99.90;;;;;;5057564;28;20025;-71
2022/04/09 07:07:23;;;;;;;28.92;3.42;;;6.50;99.90;;;;;;5055465;28;20039;-71
2022/04/09 07:09:48;;;;;;;25.13;3.80;;;6.50;99.90;;;;;;5055473;28;20036;-74
2022/04/09 07:12:14;;;;;;;21.08;3.45;;;6.50;99.90;;;;;;5055654;28;20116;-71
2022/04/09 07:14:40;;;;;;;16.60;3.20;;;6.40;99.90;;;;;;5055632;28;20043;-71
2022/04/09 07:17:05;;;;;;;20.52;3.08;;;6.40;99.90;;;;;;5056135;28;20537;-73
2022/04/09 07:19:31;;;;;;;21.30;3.67;;;6.50;99.90;;;;;;5055834;28;20025;-72
2022/04/09 07:21:58;;;;;;;20.65;3.80;;;6.50;99.90;;;;;;5056037;28;20043;-72
2022/04/09 07:24:24;;;;;;;21.20;3.10;;;6.60;99.90;;;;;;5055809;28;20029;-73
2022/04/09 07:26:49;;;;;;;22.33;5.05;;;6.60;99.90;;;;;;5055580;28;20040;-72
2022/04/09 07:29:15;;;;;;;18.52;3.72;;;6.60;99.90;;;;;;5055762;28;20097;-73
2022/04/09 07:31:41;;;;;;;16.83;3.47;;;6.60;99.90;;;;;;5055545;28;20056;-70
2022/04/09 07:34:06;;;;;;;13.10;3.08;;;6.50;99.90;;;;;;5055699;28;20021;-71
2022/04/09 07:36:32;;;;;;;13.02;2.88;;;6.50;99.90;;;;;;5055206;28;20040;-71
2022/04/09 07:38:58;;;;;;;14.63;3.13;;;6.40;99.90;;;;;;5055347;28;20391;-71
2022/04/09 07:41:23;;;;;;;15.27;2.65;;;6.40;99.90;;;;;;5055407;28;20043;-70
2022/04/09 07:43:49;;;;;;;18.13;2.78;;;6.50;99.90;;;;;;5054967;28;20114;-71
2022/04/09 07:46:14;;;;;;;13.93;2.33;;;6.60;99.90;;;;;;5054710;28;20036;-72
2022/04/09 07:48:40;;;;;;;17.65;2.67;;;6.60;99.90;;;;;;5054989;28;20492;-73
2022/04/09 07:51:05;;;;;;;14.20;2.63;;;6.70;99.90;;;;;;5054923;28;20488;-71
2022/04/09 07:53:31;;;;;;;21.35;2.90;;;6.90;99.90;;;;;;5053682;28;20021;-72
2022/04/09 07:55:56;;;;;;;29.25;4.45;;;6.90;99.90;;;;;;5054573;28;20021;-72
2022/04/09 07:58:22;;;;;;;15.43;2.30;;;7.00;99.90;;;;;;5054992;28;20374;-72
2022/04/09 08:00:49;;;;;;;14.90;2.75;;;7.20;99.90;;;;;;5054885;28;20074;-73
2022/04/09 08:03:15;;;;;;;6.80;1.95;;;7.20;99.90;;;;;;5055033;28;20482;-73
2022/04/09 08:05:41;;;;;;;17.33;2.50;;;7.40;99.90;;;;;;5056376;28;20548;-74
2022/04/09 08:08:07;;;;;;;11.77;2.15;;;7.50;99.90;;;;;;5055329;28;20029;-74
2022/04/09 08:10:33;;;;;;;20.08;2.53;;;7.70;99.90;;;;;;5052553;28;20111;-73
2022/04/09 08:12:59;;;;;;;23.25;2.55;;;7.80;99.90;;;;;;5055236;28;20481;-73
2022/04/09 08:15:25;;;;;;;13.15;2.63;;;8.00;99.90;;;;;;5053399;28;20028;-72
2022/04/09 08:17:54;;;;;;;13.60;2.15;;;8.10;99.90;;;;;;5054627;28;20029;-74
2022/04/09 08:20:20;;;;;;;15.40;2.70;;;8.20;99.90;;;;;;5055051;28;20021;-70
2022/04/09 08:22:46;;;;;;;17.33;3.03;;;8.10;99.90;;;;;;5055812;28;20021;-72
2022/04/09 08:25:12;;;;;;;17.55;3.42;;;8.00;99.90;;;;;;5057907;28;20029;-72
2022/04/09 08:27:38;;;;;;;14.13;2.60;;;8.00;99.90;;;;;;5058020;28;20025;-70
2022/04/09 08:30:06;;;;;;;18.02;2.85;;;7.90;99.90;;;;;;5053981;28;20112;-70
2022/04/09 08:32:32;;;;;;;11.10;2.40;;;7.90;99.90;;;;;;5054897;28;20028;-71
2022/04/09 08:34:58;;;;;;;14.93;2.85;;;7.80;99.90;;;;;;5053990;28;20022;-72
2022/04/09 08:37:24;;;;;;;10.02;1.92;;;7.70;99.90;;;;;;5054366;28;20021;-73
2022/04/09 08:39:50;;;;;;;10.05;1.83;;;7.80;99.90;;;;;;5054645;28;20025;-73
2022/04/09 08:42:16;;;;;;;14.63;3.13;;;7.90;99.90;;;;;;5054140;28;20083;-71
2022/04/09 08:44:41;;;;;;;10.68;1.95;;;8.00;99.90;;;;;;5054003;28;20032;-74
2022/04/09 08:47:09;;;;;;;18.42;2.80;;;8.10;99.90;;;;;;5053800;28;20032;-72
2022/04/09 08:49:39;;;;;;;10.73;1.65;;;8.20;99.90;;;;;;5053522;28;20032;-71
2022/04/09 08:52:09;;;;;;;12.07;3.55;;;8.40;99.90;;;;;;5053945;28;20116;-71
2022/04/09 08:54:36;;;;;;;10.48;1.90;;;8.50;99.90;;;;;;5054139;28;20035;-71
2022/04/09 08:57:02;;;;;;;16.02;2.47;;;8.70;99.90;;;;;;5053624;28;20040;-74
2022/04/09 08:59:28;;;;;;;15.93;2.53;;;8.70;99.90;;;;;;5053801;28;20151;-74
2022/04/09 09:01:54;;;;;;;14.73;2.33;;;8.90;99.90;;;;;;5054388;28;20068;-72
2022/04/09 09:04:20;;;;;;;18.77;2.17;;;9.00;99.90;;;;;;5056541;28;20021;-73
2022/04/09 09:06:46;;;;;;;23.10;2.78;;;9.10;99.90;;;;;;5053663;28;20059;-72
2022/04/09 09:09:32;;;;;;;17.98;2.22;;;9.50;99.90;;;;;;5034513;28;20022;-74
2022/04/09 09:12:00;;;;;;;16.02;2.70;;;9.90;99.90;;;;;;5032715;28;20079;-73
2022/04/09 09:14:33;;;;;;;11.80;2.40;;;10.00;99.90;;;;;;5033631;28;20418;-72
2022/04/09 09:17:00;;;;;;;14.85;2.97;;;10.30;99.90;;;;;;5033877;28;20025;-74
2022/04/09 09:19:43;;;;;;;13.07;2.28;;;10.50;99.90;;;;;;5033776;28;20021;-73
2022/04/09 09:22:09;;;;;;;19.17;2.65;;;10.40;99.90;;;;;;5033098;28;20029;-73
2022/04/09 09:24:35;;;;;;;17.70;2.55;;;10.10;99.90;;;;;;5033523;28;20028;-74
2022/04/09 09:27:02;;;;;;;14.43;1.98;;;9.50;99.90;;;;;;5033418;28;20100;-74
2022/04/09 09:29:30;;;;;;;13.27;2.00;;;9.60;99.90;;;;;;5033263;28;20029;-73
2022/04/09 09:31:58;;;;;;;15.65;2.35;;;9.80;99.90;;;;;;5033637;28;20029;-73
2022/04/09 09:34:24;;;;;;;10.93;1.58;;;10.30;99.90;;;;;;5032145;28;20018;-74
2022/04/09 09:36:50;;;;;;;9.35;1.80;;;10.70;99.90;;;;;;5032923;28;20564;-73
2022/04/09 09:39:26;;;;;;;23.58;5.05;;;10.80;99.90;;;;;;5034426;28;20017;-73
2022/04/09 09:42:02;;;;;;;11.00;2.10;;;10.50;99.90;;;;;;5032300;28;20037;-74
2022/04/09 09:44:31;;;;;;;15.73;2.88;;;10.30;99.90;;;;;;5032970;28;20398;-73
2022/04/09 09:47:07;;;;;;;14.45;2.05;;;10.10;99.90;;;;;;5031924;28;20057;-76
2022/04/09 09:49:37;;;;;;;9.38;1.90;;;10.00;99.90;;;;;;5033291;28;20030;-75
2022/04/09 09:52:04;;;;;;;13.00;1.70;;;10.00;99.90;;;;;;5034204;28;20028;-74
2022/04/09 09:54:29;;;;;;;8.73;1.50;;;10.00;99.90;;;;;;5033786;28;20025;-75
2022/04/09 09:56:55;;;;;;;11.60;1.75;;;9.90;99.90;;;;;;5032890;28;20036;-75
2022/04/09 09:59:22;;;;;;;11.40;2.35;;;9.80;99.90;;;;;;5033309;28;20021;-71
2022/04/09 10:01:48;;;;;;;6.50;1.88;;;9.60;99.90;;;;;;5035328;28;20383;-73
2022/04/09 10:04:13;;;;;;;9.02;1.60;;;9.40;99.90;;;;;;5038977;28;20025;-73
2022/04/09 10:06:42;;;;;;;8.73;2.05;;;9.30;99.90;;;;;;5037260;28;20083;-73
2022/04/09 10:09:08;;;;;;;10.52;2.08;;;9.30;99.90;;;;;;5035263;28;20263;-72
2022/04/09 10:11:36;;;;;;;11.10;2.70;;;9.60;99.90;;;;;;5033060;28;20032;-73
2022/04/09 10:14:03;;;;;;;8.23;1.90;;;9.90;99.90;;;;;;5031871;28;20390;-73
2022/04/09 10:16:33;;;;;;;11.65;2.00;;;10.10;99.90;;;;;;5032565;28;20021;-72
2022/04/09 10:19:00;;;;;;;17.88;2.50;;;10.30;99.90;;;;;;5032648;28;20044;-73
2022/04/09 10:21:29;;;;;;;16.25;2.90;;;10.50;99.90;;;;;;5031025;28;20041;-74
2022/04/09 10:23:57;;;;;;;8.80;2.17;;;10.50;99.90;;;;;;5032309;28;20051;-73
2022/04/09 10:26:24;;;;;;;22.20;4.05;;;10.60;99.90;;;;;;5032809;28;20048;-74
2022/04/09 10:28:51;;;;;;;19.75;2.72;;;10.60;99.90;;;;;;5031698;28;20121;-73
2022/04/09 10:31:22;;;;;;;15.25;2.53;;;10.50;99.90;;;;;;5032332;28;20024;-73
2022/04/09 10:33:56;;;;;;;22.83;2.97;;;10.10;99.90;;;;;;5031199;28;20435;-73
2022/04/09 10:36:59;;;;;;;12.47;2.07;;;9.50;99.90;;;;;;5031486;28;20036;-72
2022/04/09 10:39:33;;;;;;;18.02;2.55;;;9.10;99.90;;;;;;5032555;28;20025;-73
2022/04/09 10:41:59;;;;;;;12.88;1.98;;;8.90;99.90;;;;;;5032483;28;20159;-73
2022/04/09 10:44:43;;;;;;;14.35;2.03;;;8.50;99.90;;;;;;5035222;28;20037;-72
2022/04/09 10:47:10;;;;;;;12.00;1.67;;;8.30;99.90;;;;;;5031741;28;20644;-71
2022/04/09 10:49:36;;;;;;;13.38;1.88;;;8.00;99.90;;;;;;5033030;28;20104;-72
2022/04/09 10:52:16;;;;;;;15.38;1.83;;;7.90;99.90;;;;;;5033012;28;20104;-71
2022/04/09 10:55:04;;;;;;;8.35;1.63;;;7.90;99.90;;;;;;5031813;28;20025;-72
2022/04/09 10:57:41;;;;;;;5.88;1.13;;;8.00;99.90;;;;;;5032258;28;20096;-72
2022/04/09 11:00:09;;;;;;;16.95;1.95;;;8.30;99.90;;;;;;5031184;28;20033;-72
2022/04/09 11:02:35;;;;;;;14.20;1.73;;;8.50;99.90;;;;;;5034050;28;20118;-73
2022/04/09 11:05:23;;;;;;;11.05;1.52;;;8.90;99.90;;;;;;5031977;28;20473;-71
2022/04/09 11:08:08;;;;;;;11.20;2.15;;;9.30;99.90;;;;;;5032079;28;20030;-71
2022/04/09 11:10:34;;;;;;;15.05;2.65;;;9.70;99.90;;;;;;5032471;28;20025;-73
2022/04/09 11:13:01;;;;;;;19.13;2.25;;;9.90;99.90;;;;;;5032299;28;20028;-72
2022/04/09 11:15:29;;;;;;;12.55;1.83;;;10.40;99.90;;;;;;5031807;28;20429;-72
2022/04/09 11:18:01;;;;;;;12.90;2.33;;;10.70;99.90;;;;;;5031609;28;20030;-73
2022/04/09 11:20:35;;;;;;;16.98;1.95;;;10.70;99.90;;;;;;5031428;28;20049;-71
2022/04/09 11:23:12;;;;;;;11.77;1.75;;;10.70;99.90;;;;;;5030702;28;20025;-72
2022/04/09 11:25:43;;;;;;;17.80;2.75;;;10.70;99.90;;;;;;5031361;28;20030;-73
2022/04/09 11:28:19;;;;;;;15.07;1.98;;;10.60;99.90;;;;;;5031668;28;20033;-73
2022/04/09 11:31:00;;;;;;;17.25;2.17;;;11.30;99.90;;;;;;5031532;28;20033;-72
2022/04/09 11:33:26;;;;;;;17.38;2.20;;;11.80;99.90;;;;;;5031720;28;20025;-72
2022/04/09 11:35:52;;;;;;;15.60;2.67;;;11.90;99.90;;;;;;5030059;28;20029;-71
2022/04/09 11:38:17;;;;;;;17.80;3.10;;;11.90;99.90;;;;;;5031682;28;20037;-72
2022/04/09 11:40:46;;;;;;;15.25;2.47;;;12.10;99.90;;;;;;5031251;28;20041;-71
2022/04/09 11:43:14;;;;;;;19.73;3.30;;;12.60;99.90;;;;;;5030126;28;20056;-71
2022/04/09 11:45:40;;;;;;;20.55;2.95;;;12.80;99.90;;;;;;5035291;28;20474;-72
2022/04/09 11:48:05;;;;;;;16.90;3.30;;;12.60;99.90;;;;;;5036046;28;20029;-71
2022/04/09 11:50:39;;;;;;;23.10;5.18;;;12.40;99.90;;;;;;5034042;28;20033;-73
2022/04/09 11:53:15;;;;;;;30.87;5.00;;;12.20;99.90;;;;;;5037503;28;20029;-74
2022/04/09 11:55:42;;;;;;;20.15;3.33;;;12.50;99.90;;;;;;5036617;28;20049;-72
2022/04/09 11:58:08;;;;;;;26.10;4.43;;;12.20;99.90;;;;;;5036115;28;20021;-72
2022/04/09 12:00:38;;;;;;;17.67;3.00;;;12.00;99.90;;;;;;5038788;28;20057;-73
2022/04/09 12:03:06;;;;;;;15.23;3.08;;;11.60;99.90;;;;;;5040890;28;20089;-73
2022/04/09 12:05:41;;;;;;;37.83;3.60;;;11.20;99.90;;;;;;5055166;28;20025;-80
2022/04/09 12:08:12;;;;;;;21.52;3.25;;;11.00;99.90;;;;;;5041431;28;20088;-73
2022/04/09 12:10:54;;;;;;;18.00;3.28;;;11.60;99.90;;;;;;5058070;28;20029;-73
2022/04/09 12:13:35;;;;;;;15.27;3.75;;;11.90;99.90;;;;;;5059047;28;20363;-72
2022/04/09 12:16:11;;;;;;;21.17;3.50;;;12.40;99.90;;;;;;5055023;28;20114;-73
2022/04/09 12:18:37;;;;;;;24.30;3.92;;;12.70;99.90;;;;;;5055451;28;20150;-73
2022/04/09 12:21:18;;;;;;;21.80;3.55;;;13.30;99.90;;;;;;5056179;28;20032;-72
2022/04/09 12:23:43;;;;;;;19.48;3.22;;;14.00;99.90;;;;;;5055390;28;20020;-72
2022/04/09 12:26:25;;;;;;;19.63;3.28;;;14.40;99.90;;;;;;5054064;28;20600;-74
2022/04/09 12:29:12;;;;;;;26.67;3.45;;;14.40;99.90;;;;;;5056228;28;20050;-71
2022/04/09 12:31:39;;;;;;;20.83;4.45;;;13.80;99.90;;;;;;5053058;28;20490;-72
2022/04/09 12:34:05;;;;;;;28.40;4.30;;;13.40;99.90;;;;;;5054554;28;20112;-72
2022/04/09 12:36:31;;;;;;;31.10;5.07;;;13.00;99.90;;;;;;5057194;28;20048;-71
2022/04/09 12:38:57;;;;;;;27.25;5.30;;;12.90;99.90;;;;;;5053813;28;20045;-75
2022/04/09 12:41:23;;;;;;;25.25;4.75;;;12.60;99.90;;;;;;5053823;28;20068;-72
2022/04/09 12:43:52;;;;;;;23.83;4.10;;;12.80;99.90;;;;;;5056859;28;20036;-71
2022/04/09 12:46:18;;;;;;;22.15;4.50;;;13.80;99.90;;;;;;5053552;28;20025;-74
2022/04/09 12:48:46;;;;;;;24.98;4.10;;;14.30;99.90;;;;;;5053636;28;20033;-72
2022/04/09 12:51:13;;;;;;;22.00;4.15;;;14.50;99.90;;;;;;5053714;28;20159;-72
2022/04/09 12:53:40;;;;;;;25.20;4.53;;;14.00;99.90;;;;;;5053670;28;20051;-72
2022/04/09 12:56:07;;;;;;;21.50;4.28;;;13.70;99.90;;;;;;5053107;28;20021;-71
2022/04/09 12:58:33;;;;;;;18.88;3.42;;;14.00;99.90;;;;;;5052321;28;20410;-72
2022/04/09 13:00:58;;;;;;;24.95;4.22;;;13.90;99.90;;;;;;5053379;28;20043;-71
2022/04/09 13:03:24;;;;;;;25.95;4.40;;;13.50;99.90;;;;;;5053358;28;20029;-73
2022/04/09 13:05:50;;;;;;;31.50;4.47;;;12.90;99.90;;;;;;5053423;28;20021;-73
2022/04/09 13:08:15;;;;;;;24.55;4.75;;;12.20;99.90;;;;;;5052165;28;20110;-73
2022/04/09 13:10:41;;;;;;;31.30;4.40;;;11.90;99.90;;;;;;5053833;28;20359;-72
2022/04/09 13:13:07;;;;;;;22.58;4.32;;;11.70;99.90;;;;;;5055224;28;20031;-73